sensor_id;sensor_type;location;lat;lon;timestamp;pressure;altitude;pressure_sealevel;temperature;humidity
59435;BME280;45241;49.768;8.636;2023-02-19T00:00:58;100666.22;;;11.84;89.94
59435;BME280;45241;49.768;8.636;2023-02-19T00:03:23;100667.97;;;11.77;89.75
59435;BME280;45241;49.768;8.636;2023-02-19T00:05:48;100670.94;;;11.82;90.70
59435;BME280;45241;49.768;8.636;2023-02-19T00:08:14;100666.72;;;11.58;91.17
59435;BME280;45241;49.768;8.636;2023-02-19T00:10:39;100663.63;;;11.76;90.52
59435;BME280;45241;49.768;8.636;2023-02-19T00:13:04;100655.88;;;11.66;90.96
59435;BME280;45241;49.768;8.636;2023-02-19T00:15:33;100662.44;;;11.79;91.20
59435;BME280;45241;49.768;8.636;2023-02-19T00:17:58;100651.38;;;11.52;91.68
59435;BME280;45241;49.768;8.636;2023-02-19T00:20:23;100659.84;;;11.70;90.67
59435;BME280;45241;49.768;8.636;2023-02-19T00:22:49;100649.97;;;11.56;91.54
59435;BME280;45241;49.768;8.636;2023-02-19T00:25:14;100658.28;;;11.61;91.96
59435;BME280;45241;49.768;8.636;2023-02-19T00:27:39;100659.84;;;11.70;91.54
59435;BME280;45241;49.768;8.636;2023-02-19T00:30:05;100656.91;;;11.65;92.04
59435;BME280;45241;49.768;8.636;2023-02-19T00:32:30;100644.50;;;11.50;92.84
59435;BME280;45241;49.768;8.636;2023-02-19T00:34:56;100632.75;;;11.51;91.88
59435;BME280;45241;49.768;8.636;2023-02-19T00:37:21;100641.44;;;11.67;91.80
59435;BME280;45241;49.768;8.636;2023-02-19T00:39:47;100641.28;;;11.54;92.62
59435;BME280;45241;49.768;8.636;2023-02-19T00:42:12;100639.88;;;11.43;92.71
59435;BME280;45241;49.768;8.636;2023-02-19T00:44:37;100626.56;;;11.35;93.39
59435;BME280;45241;49.768;8.636;2023-02-19T00:47:03;100628.78;;;11.47;92.98
59435;BME280;45241;49.768;8.636;2023-02-19T00:49:28;100631.19;;;11.41;93.42
59435;BME280;45241;49.768;8.636;2023-02-19T00:51:53;100632.66;;;11.29;94.01
59435;BME280;45241;49.768;8.636;2023-02-19T00:54:19;100641.91;;;11.56;93.10
59435;BME280;45241;49.768;8.636;2023-02-19T00:56:46;100641.38;;;11.46;93.48
59435;BME280;45241;49.768;8.636;2023-02-19T00:59:11;100655.63;;;11.47;93.07
59435;BME280;45241;49.768;8.636;2023-02-19T01:01:37;100662.38;;;11.57;93.35
59435;BME280;45241;49.768;8.636;2023-02-19T01:04:02;100665.91;;;11.43;93.56
59435;BME280;45241;49.768;8.636;2023-02-19T01:06:28;100659.78;;;11.49;93.48
59435;BME280;45241;49.768;8.636;2023-02-19T01:08:54;100666.34;;;11.47;94.46
59435;BME280;45241;49.768;8.636;2023-02-19T01:11:20;100664.94;;;11.51;93.28
59435;BME280;45241;49.768;8.636;2023-02-19T01:13:45;100642.84;;;11.49;93.28
59435;BME280;45241;49.768;8.636;2023-02-19T01:16:16;100621.84;;;11.52;93.65
59435;BME280;45241;49.768;8.636;2023-02-19T01:18:43;100629.22;;;11.50;93.49
59435;BME280;45241;49.768;8.636;2023-02-19T01:21:15;100632.94;;;11.34;94.75
59435;BME280;45241;49.768;8.636;2023-02-19T01:23:40;100628.22;;;11.36;95.28
59435;BME280;45241;49.768;8.636;2023-02-19T01:26:08;100621.09;;;11.29;95.86
59435;BME280;45241;49.768;8.636;2023-02-19T01:28:34;100632.22;;;11.26;96.90
59435;BME280;45241;49.768;8.636;2023-02-19T01:31:01;100632.66;;;11.29;96.95
59435;BME280;45241;49.768;8.636;2023-02-19T01:33:26;100640.06;;;11.27;97.50
59435;BME280;45241;49.768;8.636;2023-02-19T01:35:52;100643.97;;;11.39;96.49
59435;BME280;45241;49.768;8.636;2023-02-19T01:38:17;100632.31;;;11.32;97.52
59435;BME280;45241;49.768;8.636;2023-02-19T01:40:42;100624.31;;;11.24;99.01
59435;BME280;45241;49.768;8.636;2023-02-19T01:43:14;100612.22;;;11.13;98.88
59435;BME280;45241;49.768;8.636;2023-02-19T01:45:43;100619.44;;;11.28;98.90
59435;BME280;45241;49.768;8.636;2023-02-19T01:50:49;100611.38;;;11.13;99.84
59435;BME280;45241;49.768;8.636;2023-02-19T01:53:19;100616.38;;;11.16;99.14
59435;BME280;45241;49.768;8.636;2023-02-19T01:55:47;100607.97;;;11.34;98.30
59435;BME280;45241;49.768;8.636;2023-02-19T01:58:15;100608.88;;;11.26;98.56
59435;BME280;45241;49.768;8.636;2023-02-19T02:00:40;100601.94;;;11.32;98.35
59435;BME280;45241;49.768;8.636;2023-02-19T02:03:06;100593.97;;;11.24;98.78
59435;BME280;45241;49.768;8.636;2023-02-19T02:08:05;100592.22;;;11.16;99.01
59435;BME280;45241;49.768;8.636;2023-02-19T02:10:50;100600.84;;;11.26;98.75
59435;BME280;45241;49.768;8.636;2023-02-19T02:13:17;100601.19;;;11.23;99.25
59435;BME280;45241;49.768;8.636;2023-02-19T02:15:50;100589.91;;;11.28;98.64
59435;BME280;45241;49.768;8.636;2023-02-19T02:18:39;100584.25;;;11.37;97.99
59435;BME280;45241;49.768;8.636;2023-02-19T02:27:03;100574.66;;;11.13;99.91
59435;BME280;45241;49.768;8.636;2023-02-19T02:29:47;100578.25;;;11.21;99.85
59435;BME280;45241;49.768;8.636;2023-02-19T02:32:19;100571.97;;;11.13;99.68
59435;BME280;45241;49.768;8.636;2023-02-19T02:34:50;100572.22;;;11.19;99.78
59435;BME280;45241;49.768;8.636;2023-02-19T02:37:17;100559.06;;;11.24;100.00
59435;BME280;45241;49.768;8.636;2023-02-19T02:39:44;100561.50;;;11.19;100.00
59435;BME280;45241;49.768;8.636;2023-02-19T02:42:10;100572.50;;;11.09;100.00
59435;BME280;45241;49.768;8.636;2023-02-19T02:44:51;100574.34;;;11.23;100.00
59435;BME280;45241;49.768;8.636;2023-02-19T02:47:40;100573.34;;;10.95;100.00
59435;BME280;45241;49.768;8.636;2023-02-19T02:50:19;100574.34;;;11.23;100.00
59435;BME280;45241;49.768;8.636;2023-02-19T02:52:49;100586.28;;;11.21;100.00
59435;BME280;45241;49.768;8.636;2023-02-19T02:55:38;100572.31;;;11.25;99.54
59435;BME280;45241;49.768;8.636;2023-02-19T02:58:06;100575.75;;;11.34;99.04
59435;BME280;45241;49.768;8.636;2023-02-19T03:00:32;100563.34;;;11.33;98.84
59435;BME280;45241;49.768;8.636;2023-02-19T03:03:21;100571.50;;;11.10;100.00
59435;BME280;45241;49.768;8.636;2023-02-19T03:05:48;100570.75;;;11.16;100.00
59435;BME280;45241;49.768;8.636;2023-02-19T03:08:23;100560.13;;;11.08;100.00
59435;BME280;45241;49.768;8.636;2023-02-19T03:10:57;100567.13;;;11.24;99.91
59435;BME280;45241;49.768;8.636;2023-02-19T03:13:44;100552.19;;;11.00;100.00
59435;BME280;45241;49.768;8.636;2023-02-19T03:16:31;100547.34;;;11.10;100.00
59435;BME280;45241;49.768;8.636;2023-02-19T03:19:18;100549.84;;;11.11;100.00
59435;BME280;45241;49.768;8.636;2023-02-19T03:22:05;100546.81;;;11.14;99.82
59435;BME280;45241;49.768;8.636;2023-02-19T03:24:37;100552.63;;;11.03;100.00
59435;BME280;45241;49.768;8.636;2023-02-19T03:27:23;100539.59;;;11.00;100.00
59435;BME280;45241;49.768;8.636;2023-02-19T03:29:52;100544.47;;;11.11;100.00
59435;BME280;45241;49.768;8.636;2023-02-19T03:32:42;100535.59;;;11.26;99.96
59435;BME280;45241;49.768;8.636;2023-02-19T03:35:13;100546.88;;;11.21;100.00
59435;BME280;45241;49.768;8.636;2023-02-19T03:37:45;100553.63;;;11.17;100.00
59435;BME280;45241;49.768;8.636;2023-02-19T03:40:14;100555.09;;;11.20;100.00
59435;BME280;45241;49.768;8.636;2023-02-19T03:47:55;100543.19;;;11.07;100.00
59435;BME280;45241;49.768;8.636;2023-02-19T03:50:49;100541.88;;;11.18;100.00
59435;BME280;45241;49.768;8.636;2023-02-19T03:56:17;100559.94;;;11.09;100.00
59435;BME280;45241;49.768;8.636;2023-02-19T03:58:56;100555.41;;;10.95;100.00
59435;BME280;45241;49.768;8.636;2023-02-19T04:01:36;100573.34;;;11.09;100.00
59435;BME280;45241;49.768;8.636;2023-02-19T04:04:14;100567.63;;;10.98;100.00
59435;BME280;45241;49.768;8.636;2023-02-19T04:06:41;100575.94;;;11.18;100.00
59435;BME280;45241;49.768;8.636;2023-02-19T04:09:10;100576.50;;;11.13;100.00
59435;BME280;45241;49.768;8.636;2023-02-19T04:11:37;100587.41;;;11.26;100.00
59435;BME280;45241;49.768;8.636;2023-02-19T04:14:15;100572.03;;;11.35;99.76
59435;BME280;45241;49.768;8.636;2023-02-19T04:16:46;100573.91;;;11.20;100.00
59435;BME280;45241;49.768;8.636;2023-02-19T04:19:17;100577.03;;;11.23;100.00
59435;BME280;45241;49.768;8.636;2023-02-19T04:21:44;100569.75;;;11.17;100.00
59435;BME280;45241;49.768;8.636;2023-02-19T04:24:18;100579.16;;;11.28;99.29
59435;BME280;45241;49.768;8.636;2023-02-19T04:26:46;100569.94;;;11.15;100.00
59435;BME280;45241;49.768;8.636;2023-02-19T04:29:12;100581.47;;;11.31;99.63
59435;BME280;45241;49.768;8.636;2023-02-19T04:31:37;100582.78;;;11.20;100.00
59435;BME280;45241;49.768;8.636;2023-02-19T04:34:03;100584.25;;;11.23;99.10
59435;BME280;45241;49.768;8.636;2023-02-19T04:36:31;100584.88;;;11.25;99.24
59435;BME280;45241;49.768;8.636;2023-02-19T04:38:57;100583.03;;;11.25;99.90
59435;BME280;45241;49.768;8.636;2023-02-19T04:41:23;100586.28;;;11.21;99.89
59435;BME280;45241;49.768;8.636;2023-02-19T04:43:48;100587.78;;;11.38;99.63
59435;BME280;45241;49.768;8.636;2023-02-19T04:46:14;100591.66;;;11.35;99.88
59435;BME280;45241;49.768;8.636;2023-02-19T04:48:39;100590.38;;;11.31;99.57
59435;BME280;45241;49.768;8.636;2023-02-19T04:51:06;100599.13;;;11.25;100.00
59435;BME280;45241;49.768;8.636;2023-02-19T04:53:32;100600.53;;;11.21;99.96
59435;BME280;45241;49.768;8.636;2023-02-19T04:56:14;100605.38;;;11.26;100.00
59435;BME280;45241;49.768;8.636;2023-02-19T04:58:40;100588.16;;;11.05;100.00
59435;BME280;45241;49.768;8.636;2023-02-19T05:01:06;100601.38;;;11.36;99.22
59435;BME280;45241;49.768;8.636;2023-02-19T05:03:32;100603.03;;;11.23;99.64
59435;BME280;45241;49.768;8.636;2023-02-19T05:06:03;100607.50;;;11.15;100.00
59435;BME280;45241;49.768;8.636;2023-02-19T05:08:29;100605.72;;;11.23;100.00
59435;BME280;45241;49.768;8.636;2023-02-19T05:10:59;100614.88;;;11.28;98.75
59435;BME280;45241;49.768;8.636;2023-02-19T05:13:25;100603.97;;;11.44;98.46
59435;BME280;45241;49.768;8.636;2023-02-19T05:15:59;100604.25;;;11.20;98.89
59435;BME280;45241;49.768;8.636;2023-02-19T05:18:24;100615.44;;;11.24;99.61
59435;BME280;45241;49.768;8.636;2023-02-19T05:20:50;100604.81;;;11.15;99.35
59435;BME280;45241;49.768;8.636;2023-02-19T05:23:16;100610.06;;;11.24;99.63
59435;BME280;45241;49.768;8.636;2023-02-19T05:25:41;100611.66;;;11.18;99.95
59435;BME280;45241;49.768;8.636;2023-02-19T05:28:07;100613.31;;;11.19;100.00
59435;BME280;45241;49.768;8.636;2023-02-19T05:30:41;100616.56;;;11.29;100.00
59435;BME280;45241;49.768;8.636;2023-02-19T05:33:06;100616.38;;;11.31;99.64
59435;BME280;45241;49.768;8.636;2023-02-19T05:35:32;100625.97;;;11.25;100.00
59435;BME280;45241;49.768;8.636;2023-02-19T05:37:57;100630.88;;;11.22;100.00
59435;BME280;45241;49.768;8.636;2023-02-19T05:40:22;100629.78;;;11.31;99.49
59435;BME280;45241;49.768;8.636;2023-02-19T05:42:48;100635.25;;;11.37;99.56
59435;BME280;45241;49.768;8.636;2023-02-19T05:45:13;100629.88;;;11.23;99.94
59435;BME280;45241;49.768;8.636;2023-02-19T05:47:38;100615.72;;;11.29;100.00
59435;BME280;45241;49.768;8.636;2023-02-19T05:50:04;100619.16;;;11.37;100.00
59435;BME280;45241;49.768;8.636;2023-02-19T05:52:29;100636.00;;;11.17;100.00
59435;BME280;45241;49.768;8.636;2023-02-19T05:54:55;100638.13;;;11.06;100.00
59435;BME280;45241;49.768;8.636;2023-02-19T05:57:20;100640.91;;;11.28;100.00
59435;BME280;45241;49.768;8.636;2023-02-19T05:59:45;100637.47;;;11.04;100.00
59435;BME280;45241;49.768;8.636;2023-02-19T06:02:11;100644.31;;;11.07;100.00
59435;BME280;45241;49.768;8.636;2023-02-19T06:04:36;100654.50;;;11.26;100.00
59435;BME280;45241;49.768;8.636;2023-02-19T06:07:01;100666.34;;;11.17;100.00
59435;BME280;45241;49.768;8.636;2023-02-19T06:09:26;100662.38;;;11.13;100.00
59435;BME280;45241;49.768;8.636;2023-02-19T06:11:52;100671.19;;;10.84;100.00
59435;BME280;45241;49.768;8.636;2023-02-19T06:14:17;100667.63;;;11.06;100.00
59435;BME280;45241;49.768;8.636;2023-02-19T06:16:42;100670.53;;;10.82;100.00
59435;BME280;45241;49.768;8.636;2023-02-19T06:19:08;100674.81;;;10.91;100.00
59435;BME280;45241;49.768;8.636;2023-02-19T06:21:33;100666.78;;;10.91;100.00
59435;BME280;45241;49.768;8.636;2023-02-19T06:24:04;100679.19;;;11.07;100.00
59435;BME280;45241;49.768;8.636;2023-02-19T06:26:29;100683.47;;;11.16;100.00
59435;BME280;45241;49.768;8.636;2023-02-19T06:28:54;100693.44;;;11.07;100.00
59435;BME280;45241;49.768;8.636;2023-02-19T06:31:21;100680.97;;;11.14;100.00
59435;BME280;45241;49.768;8.636;2023-02-19T06:33:47;100694.91;;;11.10;100.00
59435;BME280;45241;49.768;8.636;2023-02-19T06:36:16;100699.75;;;11.14;100.00
59435;BME280;45241;49.768;8.636;2023-02-19T06:38:43;100700.03;;;10.82;100.00
59435;BME280;45241;49.768;8.636;2023-02-19T06:41:08;100699.69;;;10.85;100.00
59435;BME280;45241;49.768;8.636;2023-02-19T06:43:34;100704.75;;;10.80;100.00
59435;BME280;45241;49.768;8.636;2023-02-19T06:46:02;100711.16;;;10.79;100.00
59435;BME280;45241;49.768;8.636;2023-02-19T06:48:29;100703.75;;;10.81;100.00
59435;BME280;45241;49.768;8.636;2023-02-19T06:50:54;100710.06;;;10.88;100.00
59435;BME280;45241;49.768;8.636;2023-02-19T06:53:20;100717.38;;;10.94;100.00
59435;BME280;45241;49.768;8.636;2023-02-19T06:55:58;100714.25;;;11.05;100.00
59435;BME280;45241;49.768;8.636;2023-02-19T06:58:24;100711.34;;;10.92;100.00
59435;BME280;45241;49.768;8.636;2023-02-19T07:00:49;100719.19;;;10.79;100.00
59435;BME280;45241;49.768;8.636;2023-02-19T07:03:15;100714.09;;;10.84;100.00
59435;BME280;45241;49.768;8.636;2023-02-19T07:05:40;100721.50;;;10.82;100.00
59435;BME280;45241;49.768;8.636;2023-02-19T07:08:05;100721.63;;;10.89;100.00
59435;BME280;45241;49.768;8.636;2023-02-19T07:10:31;100730.63;;;11.10;100.00
59435;BME280;45241;49.768;8.636;2023-02-19T07:12:56;100726.16;;;10.88;100.00
59435;BME280;45241;49.768;8.636;2023-02-19T07:15:21;100735.56;;;10.84;100.00
59435;BME280;45241;49.768;8.636;2023-02-19T07:17:46;100730.19;;;10.84;100.00
59435;BME280;45241;49.768;8.636;2023-02-19T07:20:12;100735.88;;;10.89;100.00
59435;BME280;45241;49.768;8.636;2023-02-19T07:22:37;100740.66;;;10.79;100.00
59435;BME280;45241;49.768;8.636;2023-02-19T07:25:03;100735.16;;;11.10;100.00
59435;BME280;45241;49.768;8.636;2023-02-19T07:27:28;100750.56;;;10.93;100.00
59435;BME280;45241;49.768;8.636;2023-02-19T07:29:53;100739.38;;;10.90;100.00
59435;BME280;45241;49.768;8.636;2023-02-19T07:32:18;100745.69;;;10.97;100.00
59435;BME280;45241;49.768;8.636;2023-02-19T07:34:44;100755.41;;;11.12;100.00
59435;BME280;45241;49.768;8.636;2023-02-19T07:37:09;100751.16;;;11.03;100.00
59435;BME280;45241;49.768;8.636;2023-02-19T07:39:34;100755.78;;;11.09;100.00
59435;BME280;45241;49.768;8.636;2023-02-19T07:42:00;100758.78;;;11.14;100.00
59435;BME280;45241;49.768;8.636;2023-02-19T07:44:25;100752.28;;;11.09;100.00
59435;BME280;45241;49.768;8.636;2023-02-19T07:46:50;100765.06;;;11.22;100.00
59435;BME280;45241;49.768;8.636;2023-02-19T07:49:16;100768.19;;;11.10;100.00
59435;BME280;45241;49.768;8.636;2023-02-19T07:51:41;100758.88;;;11.21;100.00
59435;BME280;45241;49.768;8.636;2023-02-19T07:54:08;100768.41;;;11.24;100.00
59435;BME280;45241;49.768;8.636;2023-02-19T07:56:33;100782.66;;;11.24;100.00
59435;BME280;45241;49.768;8.636;2023-02-19T07:58:59;100782.84;;;11.23;100.00
59435;BME280;45241;49.768;8.636;2023-02-19T08:01:25;100780.91;;;11.17;100.00
59435;BME280;45241;49.768;8.636;2023-02-19T08:04:11;100793.47;;;11.39;100.00
59435;BME280;45241;49.768;8.636;2023-02-19T08:06:36;100791.50;;;11.33;100.00
59435;BME280;45241;49.768;8.636;2023-02-19T08:09:03;100795.91;;;11.26;99.84
59435;BME280;45241;49.768;8.636;2023-02-19T08:11:28;100796.56;;;11.28;99.80
59435;BME280;45241;49.768;8.636;2023-02-19T08:14:12;100806.88;;;11.39;98.15
59435;BME280;45241;49.768;8.636;2023-02-19T08:16:37;100797.34;;;11.51;97.94
59435;BME280;45241;49.768;8.636;2023-02-19T08:19:03;100800.13;;;11.43;97.75
59435;BME280;45241;49.768;8.636;2023-02-19T08:21:28;100802.19;;;11.56;97.83
59435;BME280;45241;49.768;8.636;2023-02-19T08:23:53;100806.91;;;11.54;97.87
59435;BME280;45241;49.768;8.636;2023-02-19T08:26:18;100813.28;;;11.53;97.87
59435;BME280;45241;49.768;8.636;2023-02-19T08:28:44;100817.66;;;11.54;98.06
59435;BME280;45241;49.768;8.636;2023-02-19T08:31:10;100818.94;;;11.58;97.33
59435;BME280;45241;49.768;8.636;2023-02-19T08:33:36;100831.53;;;11.57;96.77
59435;BME280;45241;49.768;8.636;2023-02-19T08:36:04;100833.19;;;11.58;97.02
59435;BME280;45241;49.768;8.636;2023-02-19T08:38:31;100835.25;;;11.56;97.07
59435;BME280;45241;49.768;8.636;2023-02-19T08:40:58;100837.81;;;11.64;95.78
59435;BME280;45241;49.768;8.636;2023-02-19T08:43:23;100842.84;;;11.67;94.58
59435;BME280;45241;49.768;8.636;2023-02-19T08:45:51;100849.31;;;11.58;93.74
59435;BME280;45241;49.768;8.636;2023-02-19T08:48:17;100847.38;;;11.67;93.68
59435;BME280;45241;49.768;8.636;2023-02-19T08:50:42;100856.97;;;11.47;94.33
59435;BME280;45241;49.768;8.636;2023-02-19T08:53:08;100853.88;;;11.72;93.79
59435;BME280;45241;49.768;8.636;2023-02-19T08:55:36;100866.47;;;11.72;93.33
59435;BME280;45241;49.768;8.636;2023-02-19T08:58:01;100868.78;;;11.75;93.36
59435;BME280;45241;49.768;8.636;2023-02-19T09:00:27;100867.09;;;11.74;93.31
59435;BME280;45241;49.768;8.636;2023-02-19T09:02:52;100874.50;;;11.72;93.33
59435;BME280;45241;49.768;8.636;2023-02-19T09:05:18;100875.06;;;11.67;93.58
59435;BME280;45241;49.768;8.636;2023-02-19T09:07:43;100883.00;;;11.61;95.03
59435;BME280;45241;49.768;8.636;2023-02-19T09:10:11;100878.59;;;11.68;95.29
59435;BME280;45241;49.768;8.636;2023-02-19T09:12:37;100875.38;;;11.50;97.68
59435;BME280;45241;49.768;8.636;2023-02-19T09:15:03;100873.69;;;11.71;96.44
59435;BME280;45241;49.768;8.636;2023-02-19T09:17:29;100885.44;;;11.70;97.31
59435;BME280;45241;49.768;8.636;2023-02-19T09:19:54;100880.28;;;11.84;96.60
59435;BME280;45241;49.768;8.636;2023-02-19T09:22:19;100891.41;;;11.81;95.53
59435;BME280;45241;49.768;8.636;2023-02-19T09:24:44;100887.31;;;11.99;96.34
59435;BME280;45241;49.768;8.636;2023-02-19T09:27:17;100888.34;;;11.84;96.03
59435;BME280;45241;49.768;8.636;2023-02-19T09:29:43;100895.50;;;11.91;95.31
59435;BME280;45241;49.768;8.636;2023-02-19T09:32:09;100896.97;;;11.79;92.90
59435;BME280;45241;49.768;8.636;2023-02-19T09:34:34;100891.97;;;12.06;92.08
59435;BME280;45241;49.768;8.636;2023-02-19T09:36:59;100888.47;;;12.05;92.05
59435;BME280;45241;49.768;8.636;2023-02-19T09:39:25;100901.59;;;12.00;92.11
59435;BME280;45241;49.768;8.636;2023-02-19T09:44:28;100901.13;;;12.11;91.78
59435;BME280;45241;49.768;8.636;2023-02-19T09:46:55;100903.06;;;12.02;91.44
59435;BME280;45241;49.768;8.636;2023-02-19T09:49:32;100891.59;;;12.09;90.05
59435;BME280;45241;49.768;8.636;2023-02-19T09:52:02;100898.81;;;12.23;89.98
59435;BME280;45241;49.768;8.636;2023-02-19T09:54:30;100900.75;;;12.14;88.78
59435;BME280;45241;49.768;8.636;2023-02-19T09:56:59;100890.56;;;12.24;88.42
59435;BME280;45241;49.768;8.636;2023-02-19T09:59:28;100901.13;;;12.26;90.03
59435;BME280;45241;49.768;8.636;2023-02-19T10:02:13;100895.13;;;12.24;90.22
59435;BME280;45241;49.768;8.636;2023-02-19T10:04:41;100885.19;;;12.24;90.45
59435;BME280;45241;49.768;8.636;2023-02-19T10:07:19;100892.81;;;12.21;90.23
59435;BME280;45241;49.768;8.636;2023-02-19T10:09:55;100884.47;;;12.30;90.29
59435;BME280;45241;49.768;8.636;2023-02-19T10:12:27;100889.00;;;12.45;90.23
59435;BME280;45241;49.768;8.636;2023-02-19T10:14:59;100912.34;;;12.15;88.43
59435;BME280;45241;49.768;8.636;2023-02-19T10:17:29;100902.53;;;12.22;87.44
59435;BME280;45241;49.768;8.636;2023-02-19T10:19:56;100913.66;;;12.33;86.73
59435;BME280;45241;49.768;8.636;2023-02-19T10:22:22;100903.78;;;12.55;86.09
59435;BME280;45241;49.768;8.636;2023-02-19T10:24:52;100910.38;;;12.53;85.58
59435;BME280;45241;49.768;8.636;2023-02-19T10:27:18;100908.44;;;12.61;85.50
59435;BME280;45241;49.768;8.636;2023-02-19T10:29:45;100906.97;;;12.59;85.37
59435;BME280;45241;49.768;8.636;2023-02-19T10:32:14;100914.25;;;12.65;85.31
59435;BME280;45241;49.768;8.636;2023-02-19T10:34:42;100915.81;;;12.74;84.69
59435;BME280;45241;49.768;8.636;2023-02-19T10:37:11;100927.03;;;12.78;84.91
59435;BME280;45241;49.768;8.636;2023-02-19T10:39:45;100923.44;;;12.71;83.10
59435;BME280;45241;49.768;8.636;2023-02-19T10:42:20;100925.97;;;12.57;82.84
59435;BME280;45241;49.768;8.636;2023-02-19T10:44:49;100930.41;;;12.65;80.27
59435;BME280;45241;49.768;8.636;2023-02-19T10:47:19;100920.94;;;12.69;80.02
59435;BME280;45241;49.768;8.636;2023-02-19T10:49:46;100913.34;;;12.58;80.29
59435;BME280;45241;49.768;8.636;2023-02-19T10:52:30;100931.53;;;12.71;80.84
59435;BME280;45241;49.768;8.636;2023-02-19T10:55:24;100939.19;;;12.88;79.28
59435;BME280;45241;49.768;8.636;2023-02-19T10:57:49;100942.00;;;12.95;78.86
59435;BME280;45241;49.768;8.636;2023-02-19T11:02:44;100949.25;;;13.16;77.81
59435;BME280;45241;49.768;8.636;2023-02-19T11:07:47;100959.28;;;13.07;76.18
59435;BME280;45241;49.768;8.636;2023-02-19T11:12:52;100954.09;;;13.06;76.33
59435;BME280;45241;49.768;8.636;2023-02-19T11:15:26;100958.94;;;13.32;76.29
59435;BME280;45241;49.768;8.636;2023-02-19T11:18:03;100978.69;;;12.88;75.95
59435;BME280;45241;49.768;8.636;2023-02-19T11:20:29;100972.78;;;12.93;76.22
59435;BME280;45241;49.768;8.636;2023-02-19T11:22:59;100970.38;;;12.98;75.89
59435;BME280;45241;49.768;8.636;2023-02-19T11:25:26;100966.72;;;13.05;75.48
59435;BME280;45241;49.768;8.636;2023-02-19T11:30:41;100959.03;;;12.87;74.84
59435;BME280;45241;49.768;8.636;2023-02-19T11:35:44;100957.25;;;13.09;75.01
59435;BME280;45241;49.768;8.636;2023-02-19T11:38:12;100957.44;;;13.08;75.15
59435;BME280;45241;49.768;8.636;2023-02-19T11:46:58;100974.72;;;12.99;74.62
59435;BME280;45241;49.768;8.636;2023-02-19T11:57:44;100966.88;;;13.18;72.15
59435;BME280;45241;49.768;8.636;2023-02-19T12:00:19;100963.09;;;13.13;71.14
59435;BME280;45241;49.768;8.636;2023-02-19T12:13:29;100975.63;;;13.06;69.88
59435;BME280;45241;49.768;8.636;2023-02-19T12:21:50;100972.84;;;13.14;69.59
59435;BME280;45241;49.768;8.636;2023-02-19T12:27:24;100976.56;;;13.56;68.95
59435;BME280;45241;49.768;8.636;2023-02-19T12:35:42;100968.81;;;13.67;67.48
59435;BME280;45241;49.768;8.636;2023-02-19T12:43:23;100968.25;;;13.50;68.89
59435;BME280;45241;49.768;8.636;2023-02-19T12:46:10;100964.72;;;13.50;70.01
59435;BME280;45241;49.768;8.636;2023-02-19T12:51:16;100963.19;;;13.41;70.01
59435;BME280;45241;49.768;8.636;2023-02-19T12:53:49;100960.94;;;13.66;70.25
59435;BME280;45241;49.768;8.636;2023-02-19T12:56:20;100969.00;;;13.87;70.42
59435;BME280;45241;49.768;8.636;2023-02-19T12:58:48;100966.19;;;13.74;70.84
59435;BME280;45241;49.768;8.636;2023-02-19T13:01:22;100961.56;;;13.68;70.35
59435;BME280;45241;49.768;8.636;2023-02-19T13:06:31;100944.91;;;13.86;69.01
59435;BME280;45241;49.768;8.636;2023-02-19T13:09:06;100951.09;;;13.79;69.16
59435;BME280;45241;49.768;8.636;2023-02-19T13:11:53;100954.16;;;13.48;69.17
59435;BME280;45241;49.768;8.636;2023-02-19T13:14:27;100951.41;;;13.70;69.24
59435;BME280;45241;49.768;8.636;2023-02-19T13:16:59;100945.50;;;13.81;69.14
59435;BME280;45241;49.768;8.636;2023-02-19T13:19:27;100939.38;;;13.44;67.68
59435;BME280;45241;49.768;8.636;2023-02-19T13:22:02;100937.09;;;13.91;67.40
59435;BME280;45241;49.768;8.636;2023-02-19T13:24:49;100948.41;;;13.79;66.79
59435;BME280;45241;49.768;8.636;2023-02-19T13:33:15;100939.34;;;13.87;65.89
59435;BME280;45241;49.768;8.636;2023-02-19T13:36:09;100944.88;;;13.79;66.02
59435;BME280;45241;49.768;8.636;2023-02-19T13:38:38;100951.03;;;13.73;65.98
59435;BME280;45241;49.768;8.636;2023-02-19T13:41:04;100944.28;;;13.84;66.40
59435;BME280;45241;49.768;8.636;2023-02-19T13:43:35;100946.09;;;13.76;66.46
59435;BME280;45241;49.768;8.636;2023-02-19T13:46:08;100952.47;;;13.97;66.41
59435;BME280;45241;49.768;8.636;2023-02-19T13:48:37;100950.66;;;13.76;66.90
59435;BME280;45241;49.768;8.636;2023-02-19T14:02:33;100944.06;;;13.85;66.30
59435;BME280;45241;49.768;8.636;2023-02-19T14:05:08;100946.53;;;13.80;66.22
59435;BME280;45241;49.768;8.636;2023-02-19T14:07:52;100961.81;;;13.73;66.76
59435;BME280;45241;49.768;8.636;2023-02-19T14:10:50;100966.66;;;13.35;67.15
59435;BME280;45241;49.768;8.636;2023-02-19T14:18:52;100981.09;;;13.48;67.69
59435;BME280;45241;49.768;8.636;2023-02-19T14:21:25;100978.38;;;13.48;67.92
59435;BME280;45241;49.768;8.636;2023-02-19T14:23:55;100979.53;;;13.61;67.52
59435;BME280;45241;49.768;8.636;2023-02-19T14:26:23;100995.38;;;13.70;67.22
59435;BME280;45241;49.768;8.636;2023-02-19T14:28:50;100997.09;;;13.35;67.57
59435;BME280;45241;49.768;8.636;2023-02-19T14:31:35;100984.13;;;13.45;67.82
59435;BME280;45241;49.768;8.636;2023-02-19T14:34:04;100975.75;;;13.55;67.13
59435;BME280;45241;49.768;8.636;2023-02-19T14:36:46;100979.91;;;13.58;67.45
59435;BME280;45241;49.768;8.636;2023-02-19T14:39:29;100984.78;;;13.69;67.45
59435;BME280;45241;49.768;8.636;2023-02-19T14:41:57;100985.94;;;13.38;68.03
59435;BME280;45241;49.768;8.636;2023-02-19T14:44:26;100986.31;;;13.57;68.00
59435;BME280;45241;49.768;8.636;2023-02-19T14:46:58;100993.75;;;13.55;68.25